Grissom ARB Airport
KGUS : now visible

Airfield :











YOU CAN JOIN US ON...

 
LOGIN :

Register | Disclaimer

   EN    FR    IT 

 









Legend :    VFR   Marginal VFR   IFR   Intensive IFR   Very Intensive IFR
Visi :
Ceiling :
>= 8 km
>= 3000ft
5 to 8 km
1000 to 3000 ft
1500m to 5 km
500 to 1000 ft
800 to 1500m
200 to 500 ft
< 800m
< 200 ft
Symbols :   Thunderstorms  Fog  Heavy snow  Heavy precipitations  Wind > 20 kt






- Airport Elevation : 812 ft


KGUS - Grissom ARB

CURRENT METAR :
  • 292255Z AUTO 33010KT 10SM CLR 20/10 A3010 RMK AO2 SLP194 T02010096

EXPIRED METARs :
  • 292155Z AUTO 31012KT 10SM CLR 21/10 A3010 RMK AO2 SLP194 T02060098
  • 292055Z AUTO 33013KT 10SM CLR 21/09 A3011 RMK AO2 SLP198 T02100092 58001
  • 291955Z AUTO 32012KT 10SM CLR 21/10 A3012 RMK AO2 SLP201 T02130095
  • 291855Z AUTO 33016KT 10SM FEW041 FEW200 21/11 A3012 RMK AO2 SLP200 T02120112
  • 291824Z AUTO 32014KT 10SM SCT041 21/11 A3011 RMK AO2 WSHFT 18 SLP197

TAF TAF KGUS
Valid from the 29 at 21:00 until the 31 at 03:00 UTC


292100Z 2921/3103 34012KT 9999 SCT040 QNH3011INS
BECMG 3005/3006 VRB06KT 9999 FEW250 QNH3017INS TX23/3020Z TN09/3011Z LAST NO AMDS AFT 3003 NEXT 3013
KZAU FIR / North America



MET'MAP, your aeronautical weather chart ! - Copyright ORBIFLY December 2007 - Disclaimer

ORBIFLY MET'MAP TEAM :

Programming & Development : Alexandra Zaïnal
Original concept : Baudouin d'Aumeries
Technical & hardware support : Manuel Goepfert
Assistance : Marc-Olivier Méhu




SOURCES & CREDITS :

   NOAA       Earth
Advisory